Time;durP1;ratioP1;P1;durP2;ratioP2;P2;SDS_P1;SDS_P2;PMS_P1;PMS_P2;Temp;Humidity;BMP_temperature;BMP_pressure;BME280_temperature;BME280_humidity;BME280_pressure;Samples;Min_cycle;Max_cycle;Signal;HPM_P1;HPM_P2
2022/05/25 00:01:21;;;;;;;;;;;;;;;;;;4990183;28;19960;-67
2022/05/25 00:03:46;;;;;;;;;;;;;;;;;;4983620;28;19921;-67
2022/05/25 00:06:11;;;;;;;;;;;;;;;;;;4994910;28;19922;-65
2022/05/25 00:08:36;;;;;;;;;;;;;;;;;;5016663;28;19914;-66
2022/05/25 00:11:02;;;;;;;;;;;;;;;;;;4987500;28;19928;-66
2022/05/25 00:13:27;;;;;;;;;;;;;;;;;;4995665;28;20523;-65
2022/05/25 00:15:52;;;;;;;;;;;;;;;;;;4993149;28;19929;-67
2022/05/25 00:18:17;;;;;;;;;;;;;;;;;;4994516;28;20060;-66
2022/05/25 00:20:43;;;;;;;;;;;;;;;;;;5015891;28;19921;-67
2022/05/25 00:23:08;;;;;;;;;;;;;;;;;;4988467;28;19932;-67
2022/05/25 00:25:33;;;;;;;;;;;;;;;;;;5001524;28;20016;-67
2022/05/25 00:27:58;;;;;;;;;;;;;;;;;;4987031;28;20437;-66
2022/05/25 00:30:25;;;;;;;;;;;;;;;;;;4995381;28;19944;-66
2022/05/25 00:32:50;;;;;;;;;;;;;;;;;;4987311;28;19918;-65
2022/05/25 00:35:15;;;;;;;;;;;;;;;;;;4987482;28;20426;-65
2022/05/25 00:37:40;;;;;;;;;;;;;;;;;;4993838;28;19984;-66
2022/05/25 00:40:06;;;;;;;;;;;;;;;;;;4988521;28;19918;-65
2022/05/25 00:42:31;;;;;;;;;;;;;;;;;;4993293;28;19922;-66
2022/05/25 00:44:56;;;;;;;;;;;;;;;;;;4989845;28;19972;-66
2022/05/25 00:47:21;;;;;;;;;;;;;;;;;;4991507;28;19921;-65
2022/05/25 00:49:46;;;;;;;;;;;;;;;;;;4993292;28;20442;-66
2022/05/25 00:52:13;;;;;;;;;;;;;;;;;;4988429;28;19976;-66
2022/05/25 00:54:38;;;;;;;;;;;;;;;;;;4999053;28;19917;-66
2022/05/25 00:57:03;;;;;;;;;;;;;;;;;;4991455;28;19924;-66
2022/05/25 00:59:28;;;;;;;;;;;;;;;;;;4986334;28;19918;-68
2022/05/25 01:01:54;;;;;;;;;;;;;;;;;;4997750;28;19932;-66
2022/05/25 01:04:19;;;;;;;;;;;;;;;;;;4990853;28;20393;-64
2022/05/25 01:06:44;;;;;;;;;;;;;;;;;;5008011;28;19918;-66
2022/05/25 01:09:09;;;;;;;;;;;;;;;;;;4989283;28;20418;-67
2022/05/25 01:11:35;;;;;;;;;;;;;;;;;;4987801;28;19921;-66
2022/05/25 01:14:00;;;;;;;;;;;;;;;;;;4992470;28;19988;-66
2022/05/25 01:16:25;;;;;;;;;;;;;;;;;;4985535;28;19920;-67
2022/05/25 01:18:50;;;;;;;;;;;;;;;;;;4999193;28;19917;-66
2022/05/25 01:21:16;;;;;;;;;;;;;;;;;;4991391;28;19921;-66
2022/05/25 01:23:41;;;;;;;;;;;;;;;;;;4987399;28;20033;-66
2022/05/25 01:26:07;;;;;;;;;;;;;;;;;;4997968;28;20018;-66
2022/05/25 01:28:32;;;;;;;;;;;;;;;;;;4987644;28;19960;-66
2022/05/25 01:30:57;;;;;;;;;;;;;;;;;;4989043;28;19924;-65
2022/05/25 01:33:22;;;;;;;;;;;;;;;;;;5002916;28;19924;-65
2022/05/25 01:35:48;;;;;;;;;;;;;;;;;;4984879;28;19962;-66
2022/05/25 01:38:13;;;;;;;;;;;;;;;;;;4989917;28;19925;-66
2022/05/25 01:40:38;;;;;;;;;;;;;;;;;;4987439;28;20379;-66
2022/05/25 01:43:03;;;;;;;;;;;;;;;;;;4993018;28;20290;-66
2022/05/25 01:45:29;;;;;;;;;;;;;;;;;;4988267;28;19960;-66
2022/05/25 01:47:55;;;;;;;;;;;;;;;;;;4987536;28;19996;-66
2022/05/25 01:50:20;;;;;;;;;;;;;;;;;;4990352;28;19918;-66
2022/05/25 01:52:45;;;;;;;;;;;;;;;;;;4986759;28;19917;-66
2022/05/25 01:55:10;;;;;;;;;;;;;;;;;;4996340;28;19960;-66
2022/05/25 01:57:35;;;;;;;;;;;;;;;;;;4989027;28;20011;-66
2022/05/25 02:00:01;;;;;;;;;;;;;;;;;;4994724;28;19928;-66
2022/05/25 02:05:10;;;;;;;;;;;;;;;;;;4987029;28;19940;-66
2022/05/25 02:07:35;;;;;;;;;;;;;;;;;;4990791;28;20416;-66
2022/05/25 02:10:00;;;;;;;;;;;;;;;;;;4991167;28;20697;-66
2022/05/25 02:12:25;;;;;;;;;;;;;;;;;;4989581;28;19921;-66
2022/05/25 02:14:51;;;;;;;;;;;;;;;;;;4992129;28;19918;-66
2022/05/25 02:17:17;;;;;;;;;;;;;;;;;;4989536;28;19921;-66
2022/05/25 02:19:42;;;;;;;;;;;;;;;;;;4985393;28;19917;-66
2022/05/25 02:22:07;;;;;;;;;;;;;;;;;;4991686;28;19932;-66
2022/05/25 02:24:32;;;;;;;;;;;;;;;;;;4985348;28;19925;-66
2022/05/25 02:26:58;;;;;;;;;;;;;;;;;;4993319;28;20017;-66
2022/05/25 02:29:23;;;;;;;;;;;;;;;;;;4992208;28;19949;-67
2022/05/25 02:31:48;;;;;;;;;;;;;;;;;;4989195;28;19917;-66
2022/05/25 02:34:14;;;;;;;;;;;;;;;;;;4994894;28;19925;-66
2022/05/25 02:36:39;;;;;;;;;;;;;;;;;;4987383;28;19918;-66
2022/05/25 02:39:04;;;;;;;;;;;;;;;;;;4994722;28;19924;-66
2022/05/25 02:41:30;;;;;;;;;;;;;;;;;;4982545;28;19925;-66
2022/05/25 02:43:55;;;;;;;;;;;;;;;;;;4988701;28;20042;-65
2022/05/25 02:46:20;;;;;;;;;;;;;;;;;;4997397;28;19953;-66
2022/05/25 02:48:45;;;;;;;;;;;;;;;;;;4998167;28;19956;-66
2022/05/25 02:51:10;;;;;;;;;;;;;;;;;;4996924;28;20012;-66
2022/05/25 02:53:36;;;;;;;;;;;;;;;;;;4987933;28;19917;-66
2022/05/25 02:56:01;;;;;;;;;;;;;;;;;;4991595;28;19917;-66
2022/05/25 02:58:27;;;;;;;;;;;;;;;;;;4994726;28;20286;-66
2022/05/25 03:00:52;;;;;;;;;;;;;;;;;;4988867;28;20326;-66
2022/05/25 03:03:17;;;;;;;;;;;;;;;;;;5000625;28;19932;-66
2022/05/25 03:05:43;;;;;;;;;;;;;;;;;;4990724;28;20406;-66
2022/05/25 03:08:08;;;;;;;;;;;;;;;;;;5003098;28;19918;-66
2022/05/25 03:10:33;;;;;;;;;;;;;;;;;;4994547;28;19928;-66
2022/05/25 03:12:58;;;;;;;;;;;;;;;;;;4989465;28;19927;-66
2022/05/25 03:15:24;;;;;;;;;;;;;;;;;;4994347;28;19918;-66
2022/05/25 03:17:49;;;;;;;;;;;;;;;;;;4993509;28;19923;-66
2022/05/25 03:20:14;;;;;;;;;;;;;;;;;;4987235;28;19918;-66
2022/05/25 03:22:44;;;;;;;;;;;;;;;;;;4996545;28;20299;-66
2022/05/25 03:25:09;;;;;;;;;;;;;;;;;;4991705;28;19948;-65
2022/05/25 03:27:34;;;;;;;;;;;;;;;;;;4997709;28;19922;-65
2022/05/25 03:30:00;;;;;;;;;;;;;;;;;;4990326;28;19917;-65
2022/05/25 03:32:27;;;;;;;;;;;;;;;;;;4985839;28;19917;-65
2022/05/25 03:34:52;;;;;;;;;;;;;;;;;;4996500;28;19937;-65
2022/05/25 03:37:17;;;;;;;;;;;;;;;;;;4988738;28;19917;-65
2022/05/25 03:39:42;;;;;;;;;;;;;;;;;;4997151;28;19921;-65
2022/05/25 03:42:08;;;;;;;;;;;;;;;;;;4989921;28;20062;-65
2022/05/25 03:44:33;;;;;;;;;;;;;;;;;;5018056;28;19922;-64
2022/05/25 03:46:58;;;;;;;;;;;;;;;;;;4980342;28;20437;-65
2022/05/25 03:49:24;;;;;;;;;;;;;;;;;;4987591;28;19922;-64
2022/05/25 03:51:49;;;;;;;;;;;;;;;;;;4994164;28;19982;-65
2022/05/25 03:54:14;;;;;;;;;;;;;;;;;;4988908;28;19940;-66
2022/05/25 03:56:40;;;;;;;;;;;;;;;;;;4973439;28;20560;-65
2022/05/25 03:59:05;;;;;;;;;;;;;;;;;;5003925;28;19984;-65
2022/05/25 04:01:30;;;;;;;;;;;;;;;;;;4991407;28;19925;-65
2022/05/25 04:03:55;;;;;;;;;;;;;;;;;;4995385;28;19913;-66
2022/05/25 04:06:20;;;;;;;;;;;;;;;;;;4986145;28;19941;-65
2022/05/25 04:08:46;;;;;;;;;;;;;;;;;;4985855;28;19925;-65
2022/05/25 04:11:11;;;;;;;;;;;;;;;;;;4996701;28;19917;-65
2022/05/25 04:13:36;;;;;;;;;;;;;;;;;;4986526;28;19925;-65
2022/05/25 04:16:01;;;;;;;;;;;;;;;;;;5000601;28;19921;-65
2022/05/25 04:18:26;;;;;;;;;;;;;;;;;;5005226;28;19918;-65
2022/05/25 04:20:52;;;;;;;;;;;;;;;;;;4988870;28;19922;-65
2022/05/25 04:23:17;;;;;;;;;;;;;;;;;;4997391;28;19917;-65
2022/05/25 04:25:42;;;;;;;;;;;;;;;;;;4988321;28;19929;-64
2022/05/25 04:28:07;;;;;;;;;;;;;;;;;;5023478;28;19961;-64
2022/05/25 04:30:33;;;;;;;;;;;;;;;;;;4989837;28;19941;-65
2022/05/25 04:32:58;;;;;;;;;;;;;;;;;;4988260;28;19918;-65
2022/05/25 04:35:23;;;;;;;;;;;;;;;;;;4993607;28;19924;-65
2022/05/25 04:37:57;;;;;;;;;;;;;;;;;;4985815;28;19920;-66
2022/05/25 04:40:23;;;;;;;;;;;;;;;;;;4996804;28;19921;-63
2022/05/25 04:42:48;;;;;;;;;;;;;;;;;;4987477;28;19921;-65
2022/05/25 04:45:13;;;;;;;;;;;;;;;;;;4987283;28;20423;-64
2022/05/25 04:47:40;;;;;;;;;;;;;;;;;;4995340;28;20068;-65
2022/05/25 04:50:08;;;;;;;;;;;;;;;;;;4990362;28;19925;-65
2022/05/25 04:52:33;;;;;;;;;;;;;;;;;;4999062;28;20346;-65
2022/05/25 04:54:58;;;;;;;;;;;;;;;;;;4988753;28;20452;-65
2022/05/25 04:57:24;;;;;;;;;;;;;;;;;;4989828;28;19917;-64
2022/05/25 04:59:49;;;;;;;;;;;;;;;;;;4995577;28;19929;-65
2022/05/25 05:02:14;;;;;;;;;;;;;;;;;;4989189;28;20044;-65
2022/05/25 05:04:39;;;;;;;;;;;;;;;;;;4994001;28;19925;-65
2022/05/25 05:07:04;;;;;;;;;;;;;;;;;;4985394;28;19924;-65
2022/05/25 05:09:30;;;;;;;;;;;;;;;;;;4985941;28;19924;-65
2022/05/25 05:11:55;;;;;;;;;;;;;;;;;;4992778;28;19921;-65
2022/05/25 05:14:20;;;;;;;;;;;;;;;;;;4984012;28;20897;-65
2022/05/25 05:16:45;;;;;;;;;;;;;;;;;;4994055;28;19917;-65
2022/05/25 05:19:21;;;;;;;;;;;;;;;;;;4991168;28;20000;-65
2022/05/25 05:21:57;;;;;;;;;;;;;;;;;;5018950;28;20302;-65
2022/05/25 05:24:22;;;;;;;;;;;;;;;;;;4978185;28;19921;-64
2022/05/25 05:26:47;;;;;;;;;;;;;;;;;;4987748;28;20837;-65
2022/05/25 05:29:13;;;;;;;;;;;;;;;;;;4987482;28;20386;-65
2022/05/25 05:31:38;;;;;;;;;;;;;;;;;;4990892;28;19922;-65
2022/05/25 05:34:03;;;;;;;;;;;;;;;;;;4991863;28;20647;-65
2022/05/25 05:36:28;;;;;;;;;;;;;;;;;;4990685;28;19917;-65
2022/05/25 05:38:53;;;;;;;;;;;;;;;;;;5008923;28;19925;-65
2022/05/25 05:41:19;;;;;;;;;;;;;;;;;;4989986;28;20008;-65
2022/05/25 05:43:44;;;;;;;;;;;;;;;;;;4990781;28;19975;-66
2022/05/25 05:46:09;;;;;;;;;;;;;;;;;;4992187;28;20036;-65
2022/05/25 05:48:34;;;;;;;;;;;;;;;;;;4991711;28;19918;-64
2022/05/25 05:51:01;;;;;;;;;;;;;;;;;;4993454;28;19963;-65
2022/05/25 05:53:26;;;;;;;;;;;;;;;;;;4993433;28;19926;-65
2022/05/25 05:55:51;;;;;;;;;;;;;;;;;;4992126;28;19924;-65
2022/05/25 05:58:16;;;;;;;;;;;;;;;;;;5023046;28;19918;-66
2022/05/25 06:00:42;;;;;;;;;;;;;;;;;;4991728;28;19922;-65
2022/05/25 06:03:07;;;;;;;;;;;;;;;;;;4992017;28;20584;-65
2022/05/25 06:05:32;;;;;;;;;;;;;;;;;;4991759;28;19917;-66
2022/05/25 06:07:57;;;;;;;;;;;;;;;;;;4992744;28;19918;-65
2022/05/25 06:10:23;;;;;;;;;;;;;;;;;;4989779;28;19956;-65
2022/05/25 06:12:48;;;;;;;;;;;;;;;;;;4995853;28;19924;-66
2022/05/25 06:20:41;;;;;;;;;;;;;;;;;;4992049;28;19922;-65
2022/05/25 06:23:06;;;;;;;;;;;;;;;;;;4998181;28;19950;-64
2022/05/25 06:25:32;;;;;;;;;;;;;;;;;;4997936;28;19924;-65
2022/05/25 06:27:57;;;;;;;;;;;;;;;;;;5000419;28;19921;-65
2022/05/25 06:30:22;;;;;;;;;;;;;;;;;;5001959;28;19953;-65
2022/05/25 06:32:48;;;;;;;;;;;;;;;;;;4996409;28;19960;-66
2022/05/25 06:35:13;;;;;;;;;;;;;;;;;;5009892;28;19932;-65
2022/05/25 06:37:38;;;;;;;;;;;;;;;;;;4992527;28;20029;-65
2022/05/25 06:40:04;;;;;;;;;;;;;;;;;;4993352;28;19943;-65
2022/05/25 06:42:29;;;;;;;;;;;;;;;;;;5000475;28;20478;-65
2022/05/25 06:44:56;;;;;;;;;;;;;;;;;;4995342;28;20000;-66
2022/05/25 06:47:21;;;;;;;;;;;;;;;;;;4996838;28;20006;-65
2022/05/25 06:49:46;;;;;;;;;;;;;;;;;;4993927;28;19937;-65
2022/05/25 06:52:12;;;;;;;;;;;;;;;;;;4993749;28;19918;-65
2022/05/25 06:54:37;;;;;;;;;;;;;;;;;;4994326;28;19924;-65
2022/05/25 06:57:02;;;;;;;;;;;;;;;;;;4995381;28;20008;-65
2022/05/25 06:59:27;;;;;;;;;;;;;;;;;;4997605;28;19986;-65
2022/05/25 07:01:53;;;;;;;;;;;;;;;;;;4993824;28;19925;-65
2022/05/25 07:04:18;;;;;;;;;;;;;;;;;;4993557;28;20006;-65
2022/05/25 07:06:43;;;;;;;;;;;;;;;;;;4992709;28;20382;-66
2022/05/25 07:09:08;;;;;;;;;;;;;;;;;;4992686;28;20267;-66
2022/05/25 07:11:34;;;;;;;;;;;;;;;;;;4996763;28;19917;-65
2022/05/25 07:13:59;;;;;;;;;;;;;;;;;;4999537;28;19945;-65
2022/05/25 07:16:24;;;;;;;;;;;;;;;;;;4999642;28;19917;-65
2022/05/25 07:18:49;;;;;;;;;;;;;;;;;;5000130;28;19925;-65
2022/05/25 07:21:15;;;;;;;;;;;;;;;;;;4997938;28;19918;-65
2022/05/25 07:23:40;;;;;;;;;;;;;;;;;;4998096;28;20283;-65
2022/05/25 07:26:06;;;;;;;;;;;;;;;;;;5030811;28;20609;-66
2022/05/25 07:28:31;;;;;;;;;;;;;;;;;;4996215;28;20017;-66
2022/05/25 07:30:56;;;;;;;;;;;;;;;;;;4997136;28;19918;-65
2022/05/25 07:33:21;;;;;;;;;;;;;;;;;;4997460;28;19917;-65
2022/05/25 07:35:46;;;;;;;;;;;;;;;;;;4996932;28;19914;-66
2022/05/25 07:38:12;;;;;;;;;;;;;;;;;;4996558;28;19917;-66
2022/05/25 07:40:37;;;;;;;;;;;;;;;;;;4995350;28;19921;-66
2022/05/25 07:43:02;;;;;;;;;;;;;;;;;;4997048;28;20678;-66
2022/05/25 07:45:27;;;;;;;;;;;;;;;;;;4995004;28;20374;-66
2022/05/25 07:47:54;;;;;;;;;;;;;;;;;;4996293;28;20158;-65
2022/05/25 07:50:19;;;;;;;;;;;;;;;;;;4994991;28;19914;-66
2022/05/25 07:52:44;;;;;;;;;;;;;;;;;;4996775;28;19924;-65
2022/05/25 07:55:11;;;;;;;;;;;;;;;;;;4995900;28;19929;-65
2022/05/25 07:57:36;;;;;;;;;;;;;;;;;;4995958;28;20387;-66
2022/05/25 08:00:01;;;;;;;;;;;;;;;;;;4999249;28;19914;-66
2022/05/25 08:07:54;;;;;;;;;;;;;;;;;;5017797;28;19922;-66
2022/05/25 08:10:22;;;;;;;;;;;;;;;;;;4997746;28;19936;-66
2022/05/25 08:12:47;;;;;;;;;;;;;;;;;;4997063;28;19924;-66
2022/05/25 08:15:12;;;;;;;;;;;;;;;;;;4996581;28;19914;-66
2022/05/25 08:17:37;;;;;;;;;;;;;;;;;;4996084;28;20296;-66
2022/05/25 08:20:02;;;;;;;;;;;;;;;;;;4997338;28;19922;-65
2022/05/25 08:22:28;;;;;;;;;;;;;;;;;;4997648;28;19918;-66
2022/05/25 08:24:53;;;;;;;;;;;;;;;;;;5000232;28;19926;-65
2022/05/25 08:27:18;;;;;;;;;;;;;;;;;;4998832;28;19921;-65
2022/05/25 08:29:43;;;;;;;;;;;;;;;;;;4994564;28;19971;-66
2022/05/25 08:32:09;;;;;;;;;;;;;;;;;;4993276;28;19953;-66
2022/05/25 08:34:35;;;;;;;;;;;;;;;;;;5026379;28;19913;-66
2022/05/25 08:37:00;;;;;;;;;;;;;;;;;;4992691;28;20259;-66
2022/05/25 08:39:25;;;;;;;;;;;;;;;;;;4993079;28;19952;-66
2022/05/25 08:41:50;;;;;;;;;;;;;;;;;;4998035;28;19921;-66
2022/05/25 08:44:15;;;;;;;;;;;;;;;;;;5007735;28;20675;-65
2022/05/25 08:46:41;;;;;;;;;;;;;;;;;;4996259;28;20938;-66
2022/05/25 08:49:06;;;;;;;;;;;;;;;;;;4995327;28;20306;-66
2022/05/25 08:51:31;;;;;;;;;;;;;;;;;;4995161;28;19921;-66
2022/05/25 08:53:56;;;;;;;;;;;;;;;;;;4994819;28;20290;-67
2022/05/25 08:56:22;;;;;;;;;;;;;;;;;;4994718;28;19969;-67
2022/05/25 08:58:47;;;;;;;;;;;;;;;;;;4995392;28;20450;-65
2022/05/25 09:01:12;;;;;;;;;;;;;;;;;;5009667;28;19928;-67
2022/05/25 09:03:37;;;;;;;;;;;;;;;;;;4995753;28;19922;-65
2022/05/25 09:06:03;;;;;;;;;;;;;;;;;;4994858;28;20367;-65
2022/05/25 09:08:28;;;;;;;;;;;;;;;;;;4996201;28;19917;-66
2022/05/25 09:10:53;;;;;;;;;;;;;;;;;;4995187;28;19925;-66
2022/05/25 09:13:18;;;;;;;;;;;;;;;;;;4994238;28;20071;-66
2022/05/25 09:18:29;;;;;;;;;;;;;;;;;;4994093;28;19925;-66
2022/05/25 09:20:55;;;;;;;;;;;;;;;;;;4993122;28;20588;-66
2022/05/25 09:23:20;;;;;;;;;;;;;;;;;;4992907;28;19957;-66
2022/05/25 09:25:46;;;;;;;;;;;;;;;;;;4991969;28;19914;-66
2022/05/25 09:28:12;;;;;;;;;;;;;;;;;;4991484;28;20667;-66
2022/05/25 09:30:37;;;;;;;;;;;;;;;;;;4994945;28;19997;-66
2022/05/25 09:33:02;;;;;;;;;;;;;;;;;;5000367;28;19933;-66
2022/05/25 09:35:27;;;;;;;;;;;;;;;;;;4999636;28;19937;-66
2022/05/25 09:37:53;;;;;;;;;;;;;;;;;;4995374;28;19957;-66
2022/05/25 09:40:18;;;;;;;;;;;;;;;;;;5001188;28;19918;-66
2022/05/25 09:42:43;;;;;;;;;;;;;;;;;;4995781;28;20445;-66
2022/05/25 09:45:09;;;;;;;;;;;;;;;;;;4998625;28;19928;-66
2022/05/25 09:47:34;;;;;;;;;;;;;;;;;;4996236;28;19929;-66
2022/05/25 09:49:59;;;;;;;;;;;;;;;;;;5006603;28;19955;-66
2022/05/25 09:52:25;;;;;;;;;;;;;;;;;;4995870;28;20000;-66
2022/05/25 09:54:50;;;;;;;;;;;;;;;;;;4995539;28;20530;-65
2022/05/25 09:57:15;;;;;;;;;;;;;;;;;;4994451;28;19956;-66
2022/05/25 09:59:40;;;;;;;;;;;;;;;;;;4997489;28;19972;-66
2022/05/25 10:02:05;;;;;;;;;;;;;;;;;;4991472;28;19928;-66
2022/05/25 10:04:31;;;;;;;;;;;;;;;;;;4993303;28;19926;-66
2022/05/25 10:06:57;;;;;;;;;;;;;;;;;;4994856;28;20301;-67
2022/05/25 10:09:23;;;;;;;;;;;;;;;;;;4989467;28;19918;-65
2022/05/25 10:11:48;;;;;;;;;;;;;;;;;;5020495;28;19914;-66
2022/05/25 10:14:13;;;;;;;;;;;;;;;;;;4993992;28;20199;-66
2022/05/25 10:16:38;;;;;;;;;;;;;;;;;;4990046;28;20020;-66
2022/05/25 10:19:04;;;;;;;;;;;;;;;;;;4991914;28;20259;-66
2022/05/25 10:21:29;;;;;;;;;;;;;;;;;;4991605;28;20004;-66
2022/05/25 10:23:55;;;;;;;;;;;;;;;;;;4997123;28;19926;-66
2022/05/25 10:26:20;;;;;;;;;;;;;;;;;;4991970;28;20422;-66
2022/05/25 10:28:46;;;;;;;;;;;;;;;;;;4992419;28;19917;-66
2022/05/25 10:36:48;;;;;;;;;;;;;;;;;;4977060;28;20365;-66
2022/05/25 10:39:14;;;;;;;;;;;;;;;;;;4985102;28;19918;-66
2022/05/25 10:41:40;;;;;;;;;;;;;;;;;;4990850;28;19984;-67
2022/05/25 10:44:06;;;;;;;;;;;;;;;;;;4991989;28;20004;-67
2022/05/25 10:46:32;;;;;;;;;;;;;;;;;;4971050;28;19917;-66
2022/05/25 10:48:57;;;;;;;;;;;;;;;;;;4991488;28;19921;-66
2022/05/25 10:51:22;;;;;;;;;;;;;;;;;;4993529;28;19918;-66
2022/05/25 10:56:32;;;;;;;;;;;;;;;;;;4994705;28;19918;-66
2022/05/25 10:58:57;;;;;;;;;;;;;;;;;;4993825;28;19964;-67
2022/05/25 11:01:22;;;;;;;;;;;;;;;;;;4996012;28;20020;-66
2022/05/25 11:03:47;;;;;;;;;;;;;;;;;;4993624;28;19917;-66
2022/05/25 11:06:12;;;;;;;;;;;;;;;;;;5001088;28;20260;-66
2022/05/25 11:08:38;;;;;;;;;;;;;;;;;;4992470;28;19918;-67
2022/05/25 11:11:03;;;;;;;;;;;;;;;;;;4981055;28;20627;-66
2022/05/25 11:13:28;;;;;;;;;;;;;;;;;;4982331;28;19921;-66
2022/05/25 11:15:54;;;;;;;;;;;;;;;;;;4986331;28;19913;-67
2022/05/25 11:18:19;;;;;;;;;;;;;;;;;;4987698;28;20016;-66
2022/05/25 11:20:44;;;;;;;;;;;;;;;;;;4988881;28;20007;-67
2022/05/25 11:23:09;;;;;;;;;;;;;;;;;;4991561;28;19949;-67
2022/05/25 11:25:34;;;;;;;;;;;;;;;;;;4995031;28;20036;-66
2022/05/25 11:28:00;;;;;;;;;;;;;;;;;;4991012;28;19925;-68
2022/05/25 11:30:25;;;;;;;;;;;;;;;;;;4995972;28;19963;-67
2022/05/25 11:32:50;;;;;;;;;;;;;;;;;;4993508;28;20294;-68
2022/05/25 11:35:17;;;;;;;;;;;;;;;;;;5002498;28;19921;-66
2022/05/25 11:37:42;;;;;;;;;;;;;;;;;;4992081;28;20423;-67
2022/05/25 11:40:07;;;;;;;;;;;;;;;;;;4993613;28;19917;-67
2022/05/25 11:42:33;;;;;;;;;;;;;;;;;;4992650;28;20280;-67
2022/05/25 11:44:58;;;;;;;;;;;;;;;;;;4992061;28;20358;-69
2022/05/25 11:47:23;;;;;;;;;;;;;;;;;;4995158;28;20775;-66
2022/05/25 11:49:48;;;;;;;;;;;;;;;;;;4993128;28;19918;-70
2022/05/25 11:52:14;;;;;;;;;;;;;;;;;;4991721;28;19964;-66
2022/05/25 11:54:39;;;;;;;;;;;;;;;;;;4993983;28;19917;-67
2022/05/25 11:57:04;;;;;;;;;;;;;;;;;;4994420;28;19917;-69
2022/05/25 11:59:29;;;;;;;;;;;;;;;;;;4994340;28;20012;-67
2022/05/25 12:01:57;;;;;;;;;;;;;;;;;;5001692;28;19995;-67
2022/05/25 12:04:22;;;;;;;;;;;;;;;;;;4994312;28;19917;-69
2022/05/25 12:06:48;;;;;;;;;;;;;;;;;;4994542;28;20353;-67
2022/05/25 12:09:13;;;;;;;;;;;;;;;;;;5025246;28;20012;-67
2022/05/25 12:11:38;;;;;;;;;;;;;;;;;;4994368;28;19925;-69
2022/05/25 12:14:04;;;;;;;;;;;;;;;;;;4994722;28;19984;-67
2022/05/25 12:16:29;;;;;;;;;;;;;;;;;;4993676;28;20012;-68
2022/05/25 12:18:55;;;;;;;;;;;;;;;;;;4992023;28;19924;-67
2022/05/25 12:21:20;;;;;;;;;;;;;;;;;;4995555;28;19922;-66
2022/05/25 12:23:45;;;;;;;;;;;;;;;;;;4997156;28;19921;-67
2022/05/25 12:26:12;;;;;;;;;;;;;;;;;;4992519;28;20048;-68
2022/05/25 12:28:37;;;;;;;;;;;;;;;;;;4994960;28;19964;-69
2022/05/25 12:31:03;;;;;;;;;;;;;;;;;;4993399;28;19910;-68
2022/05/25 12:33:28;;;;;;;;;;;;;;;;;;4994728;28;19924;-67
2022/05/25 12:35:53;;;;;;;;;;;;;;;;;;4993052;28;19918;-68
2022/05/25 12:38:19;;;;;;;;;;;;;;;;;;4992746;28;19918;-68
2022/05/25 12:40:44;;;;;;;;;;;;;;;;;;4992653;28;19917;-67
2022/05/25 12:43:10;;;;;;;;;;;;;;;;;;4994780;28;20278;-67
2022/05/25 12:48:31;;;;;;;;;;;;;;;;;;5004734;28;20664;-67
2022/05/25 12:50:57;;;;;;;;;;;;;;;;;;4976713;28;20017;-67
2022/05/25 12:53:23;;;;;;;;;;;;;;;;;;4992251;28;20020;-68
2022/05/25 12:55:48;;;;;;;;;;;;;;;;;;5000541;28;19935;-68
2022/05/25 12:58:13;;;;;;;;;;;;;;;;;;4993121;28;20599;-69
2022/05/25 13:00:39;;;;;;;;;;;;;;;;;;4994946;28;19941;-68
2022/05/25 13:03:05;;;;;;;;;;;;;;;;;;4998033;28;20420;-68
2022/05/25 13:05:30;;;;;;;;;;;;;;;;;;4999445;28;19925;-68
2022/05/25 13:07:55;;;;;;;;;;;;;;;;;;5027708;28;19921;-68
2022/05/25 13:10:20;;;;;;;;;;;;;;;;;;4998123;28;20375;-68
2022/05/25 13:12:46;;;;;;;;;;;;;;;;;;4994596;28;20425;-67
2022/05/25 13:15:12;;;;;;;;;;;;;;;;;;4995314;28;19953;-69
2022/05/25 13:17:37;;;;;;;;;;;;;;;;;;4994514;28;19952;-69
2022/05/25 13:20:06;;;;;;;;;;;;;;;;;;4998572;28;19917;-69
2022/05/25 13:22:31;;;;;;;;;;;;;;;;;;4993936;28;20442;-68
2022/05/25 13:24:56;;;;;;;;;;;;;;;;;;4995337;28;19925;-68
2022/05/25 13:27:22;;;;;;;;;;;;;;;;;;4993168;28;19922;-67
2022/05/25 13:29:47;;;;;;;;;;;;;;;;;;4995538;28;19924;-68
2022/05/25 13:32:12;;;;;;;;;;;;;;;;;;4995844;28;19924;-68
2022/05/25 13:34:37;;;;;;;;;;;;;;;;;;4996103;28;19909;-68
2022/05/25 13:37:02;;;;;;;;;;;;;;;;;;4995962;28;19918;-68
2022/05/25 13:39:28;;;;;;;;;;;;;;;;;;4999627;28;20012;-68
2022/05/25 13:41:54;;;;;;;;;;;;;;;;;;4996977;28;19921;-68
2022/05/25 13:44:19;;;;;;;;;;;;;;;;;;4995289;28;19918;-68
2022/05/25 13:46:44;;;;;;;;;;;;;;;;;;4998646;28;19951;-68
2022/05/25 13:49:09;;;;;;;;;;;;;;;;;;4991295;28;19983;-68
2022/05/25 13:51:35;;;;;;;;;;;;;;;;;;4994612;28;19957;-68
2022/05/25 13:54:00;;;;;;;;;;;;;;;;;;4979646;28;19924;-69
2022/05/25 13:56:25;;;;;;;;;;;;;;;;;;4992117;28;19917;-68
2022/05/25 13:58:51;;;;;;;;;;;;;;;;;;4992664;28;19936;-68
2022/05/25 14:01:16;;;;;;;;;;;;;;;;;;4995235;28;20658;-68
2022/05/25 14:03:41;;;;;;;;;;;;;;;;;;4977958;28;19928;-68
2022/05/25 14:06:08;;;;;;;;;;;;;;;;;;4995658;28;19917;-68
2022/05/25 14:11:17;;;;;;;;;;;;;;;;;;4992647;28;19918;-68
2022/05/25 14:13:43;;;;;;;;;;;;;;;;;;4994534;28;19924;-68
2022/05/25 14:16:08;;;;;;;;;;;;;;;;;;4993333;28;20008;-68
2022/05/25 14:18:33;;;;;;;;;;;;;;;;;;4994307;28;20711;-68
2022/05/25 14:20:58;;;;;;;;;;;;;;;;;;4976819;28;19972;-68
2022/05/25 14:23:24;;;;;;;;;;;;;;;;;;4994914;28;19937;-68
2022/05/25 14:25:49;;;;;;;;;;;;;;;;;;5000540;28;20337;-68
2022/05/25 14:28:15;;;;;;;;;;;;;;;;;;4998390;28;20000;-68
2022/05/25 14:30:40;;;;;;;;;;;;;;;;;;4997476;28;20025;-67
2022/05/25 14:33:05;;;;;;;;;;;;;;;;;;4996066;28;20005;-68
2022/05/25 14:35:30;;;;;;;;;;;;;;;;;;4996795;28;19918;-68
2022/05/25 14:37:56;;;;;;;;;;;;;;;;;;5022563;28;19966;-67
2022/05/25 14:40:21;;;;;;;;;;;;;;;;;;4996920;28;19917;-68
2022/05/25 14:42:47;;;;;;;;;;;;;;;;;;4998532;28;20557;-68
2022/05/25 14:45:13;;;;;;;;;;;;;;;;;;4997567;28;19922;-68
2022/05/25 14:47:39;;;;;;;;;;;;;;;;;;5029363;28;19927;-67
2022/05/25 14:50:04;;;;;;;;;;;;;;;;;;4998359;28;20795;-65
2022/05/25 14:52:30;;;;;;;;;;;;;;;;;;4994318;28;19952;-66
2022/05/25 14:54:55;;;;;;;;;;;;;;;;;;4993968;28;20008;-68
2022/05/25 14:57:20;;;;;;;;;;;;;;;;;;4996248;28;19918;-67
2022/05/25 14:59:45;;;;;;;;;;;;;;;;;;4998142;28;20276;-68
2022/05/25 15:02:11;;;;;;;;;;;;;;;;;;5028308;28;19921;-66
2022/05/25 15:04:36;;;;;;;;;;;;;;;;;;4993974;28;19922;-67
2022/05/25 15:07:02;;;;;;;;;;;;;;;;;;4986443;28;19925;-66
2022/05/25 15:09:27;;;;;;;;;;;;;;;;;;5002512;28;19921;-67
2022/05/25 15:11:53;;;;;;;;;;;;;;;;;;5005145;28;20072;-67
2022/05/25 15:19:46;;;;;;;;;;;;;;;;;;5000056;28;20028;-67
2022/05/25 15:22:11;;;;;;;;;;;;;;;;;;4995803;28;19924;-67
2022/05/25 15:24:36;;;;;;;;;;;;;;;;;;4985222;28;19921;-68
2022/05/25 15:27:03;;;;;;;;;;;;;;;;;;5025669;28;19921;-68
2022/05/25 15:29:29;;;;;;;;;;;;;;;;;;4995787;28;19923;-68
2022/05/25 15:31:54;;;;;;;;;;;;;;;;;;4995422;28;19917;-68
2022/05/25 15:34:19;;;;;;;;;;;;;;;;;;4991690;28;19917;-68
2022/05/25 15:36:45;;;;;;;;;;;;;;;;;;4996061;28;19929;-67
2022/05/25 15:39:10;;;;;;;;;;;;;;;;;;5002381;28;20310;-68
2022/05/25 15:41:35;;;;;;;;;;;;;;;;;;5000101;28;19925;-67
2022/05/25 15:44:00;;;;;;;;;;;;;;;;;;4993766;28;20677;-67
2022/05/25 15:46:25;;;;;;;;;;;;;;;;;;4992839;28;20371;-67
2022/05/25 15:48:51;;;;;;;;;;;;;;;;;;4981738;28;19933;-67
2022/05/25 15:51:16;;;;;;;;;;;;;;;;;;4985550;28;19917;-67
2022/05/25 15:53:41;;;;;;;;;;;;;;;;;;4983716;28;19957;-68
2022/05/25 15:56:07;;;;;;;;;;;;;;;;;;4981585;28;19917;-68
2022/05/25 15:58:33;;;;;;;;;;;;;;;;;;4989383;28;19919;-67
2022/05/25 16:00:58;;;;;;;;;;;;;;;;;;4993525;28;19925;-68
2022/05/25 16:03:23;;;;;;;;;;;;;;;;;;4987830;28;20452;-68
2022/05/25 16:05:48;;;;;;;;;;;;;;;;;;4995259;28;19921;-67
2022/05/25 16:10:58;;;;;;;;;;;;;;;;;;4992886;28;19972;-67
2022/05/25 16:13:23;;;;;;;;;;;;;;;;;;4994137;28;19913;-67
2022/05/25 16:15:48;;;;;;;;;;;;;;;;;;4993003;28;20434;-68
2022/05/25 16:18:13;;;;;;;;;;;;;;;;;;4995265;28;19913;-67
2022/05/25 16:20:39;;;;;;;;;;;;;;;;;;4994752;28;20377;-68
2022/05/25 16:23:04;;;;;;;;;;;;;;;;;;4984649;28;20593;-67
2022/05/25 16:25:31;;;;;;;;;;;;;;;;;;4994435;28;19929;-67
2022/05/25 16:27:56;;;;;;;;;;;;;;;;;;4993850;28;19928;-67
2022/05/25 16:30:21;;;;;;;;;;;;;;;;;;4993441;28;19917;-67
2022/05/25 16:32:46;;;;;;;;;;;;;;;;;;5000275;28;19921;-68
2022/05/25 16:35:12;;;;;;;;;;;;;;;;;;4993534;28;20027;-67
2022/05/25 16:37:38;;;;;;;;;;;;;;;;;;4993435;28;19917;-66
2022/05/25 16:40:03;;;;;;;;;;;;;;;;;;4992723;28;20489;-66
2022/05/25 16:42:28;;;;;;;;;;;;;;;;;;4994549;28;20053;-66
2022/05/25 16:44:53;;;;;;;;;;;;;;;;;;4992060;28;19921;-66
2022/05/25 16:47:19;;;;;;;;;;;;;;;;;;4994435;28;19929;-67
2022/05/25 16:49:44;;;;;;;;;;;;;;;;;;4993557;28;19925;-67
2022/05/25 16:52:09;;;;;;;;;;;;;;;;;;4995813;28;19924;-66
2022/05/25 16:54:35;;;;;;;;;;;;;;;;;;4994652;28;19918;-67
2022/05/25 16:57:00;;;;;;;;;;;;;;;;;;4993364;28;19917;-67
2022/05/25 16:59:25;;;;;;;;;;;;;;;;;;4997572;28;19928;-67
2022/05/25 17:01:50;;;;;;;;;;;;;;;;;;5024506;28;19921;-67
2022/05/25 17:04:16;;;;;;;;;;;;;;;;;;4993954;28;19930;-67
2022/05/25 17:06:41;;;;;;;;;;;;;;;;;;4999023;28;20004;-67
2022/05/25 17:09:06;;;;;;;;;;;;;;;;;;4992427;28;19917;-67
2022/05/25 17:11:31;;;;;;;;;;;;;;;;;;4994117;28;20040;-67